Time;durP1;ratioP1;P1;durP2;ratioP2;P2;SDS_P1;SDS_P2;PMS_P1;PMS_P2;Temp;Humidity;BMP_temperature;BMP_pressure;BME280_temperature;BME280_humidity;BME280_pressure;Samples;Min_cycle;Max_cycle;Signal;HPM_P1;HPM_P2
2022/11/08 00:01:33;;;;;;;;;;;;;;;10.86;74.40;101141.13;5064275;28;20406;-59
2022/11/08 00:04:00;;;;;;;;;;;;;;;10.83;74.40;101141.28;5062116;28;19928;-57
2022/11/08 00:14:38;;;;;;;;;;;;;;;10.75;74.57;101139.06;5062506;28;19978;-58
2022/11/08 00:17:03;;;;;;;;;;;;;;;10.75;74.64;101140.84;5066802;28;19952;-58
2022/11/08 00:19:28;;;;;;;;;;;;;;;10.75;74.51;101138.22;5065996;28;19917;-57
2022/11/08 00:21:54;;;;;;;;;;;;;;;10.73;74.78;101134.81;5065472;28;19925;-57
2022/11/08 00:24:19;;;;;;;;;;;;;;;10.71;74.93;101137.53;5055167;28;19967;-61
2022/11/08 00:26:44;;;;;;;;;;;;;;;10.69;74.92;101134.13;5046493;28;19939;-57
2022/11/08 00:29:10;;;;;;;;;;;;;;;10.67;75.25;101136.00;5067606;28;20477;-58
2022/11/08 00:31:35;;;;;;;;;;;;;;;10.66;75.06;101140.38;5068070;28;19921;-57
2022/11/08 00:34:00;;;;;;;;;;;;;;;10.66;75.06;101145.66;5070591;28;19920;-59
2022/11/08 00:36:26;;;;;;;;;;;;;;;10.67;75.09;101149.97;5067639;28;19951;-58
2022/11/08 00:38:51;;;;;;;;;;;;;;;10.68;74.88;101149.06;5070116;28;20376;-58
2022/11/08 00:41:16;;;;;;;;;;;;;;;10.67;74.94;101152.63;5070548;28;19917;-58
2022/11/08 00:43:41;;;;;;;;;;;;;;;10.66;74.79;101153.53;5066125;28;20011;-57
2022/11/08 00:46:07;;;;;;;;;;;;;;;10.64;75.21;101149.28;5068499;28;19927;-59
2022/11/08 00:48:32;;;;;;;;;;;;;;;10.64;75.00;101149.28;5070429;28;19921;-58
2022/11/08 00:51:01;;;;;;;;;;;;;;;10.61;75.02;101152.94;5068331;28;19920;-62
2022/11/08 00:53:27;;;;;;;;;;;;;;;10.60;75.11;101155.63;5068824;28;19924;-61
2022/11/08 00:56:00;;;;;;;;;;;;;;;10.60;75.01;101158.28;5049703;28;19917;-58
2022/11/08 00:58:25;;;;;;;;;;;;;;;10.59;75.40;101157.44;5069359;28;19947;-61
2022/11/08 01:00:51;;;;;;;;;;;;;;;10.57;75.29;101151.41;5070071;28;19959;-57
2022/11/08 01:03:19;;;;;;;;;;;;;;;10.57;75.36;101150.56;5070822;28;19951;-57
2022/11/08 01:05:45;;;;;;;;;;;;;;;10.57;75.17;101145.28;5071336;28;20442;-57
2022/11/08 01:08:10;;;;;;;;;;;;;;;10.57;75.23;101151.41;5069823;28;19920;-60
2022/11/08 01:10:36;;;;;;;;;;;;;;;10.56;75.43;101148.84;5068833;28;20342;-58
2022/11/08 01:13:02;;;;;;;;;;;;;;;10.55;75.47;101148.00;5065143;28;19928;-58
2022/11/08 01:15:27;;;;;;;;;;;;;;;10.55;75.37;101148.00;5060852;28;19934;-57
2022/11/08 01:17:52;;;;;;;;;;;;;;;10.54;75.48;101146.28;5067279;28;19920;-58
2022/11/08 01:20:18;;;;;;;;;;;;;;;10.55;75.57;101147.16;5065950;28;19924;-58
2022/11/08 01:22:43;;;;;;;;;;;;;;;10.50;75.70;101144.75;5066628;28;19936;-59
2022/11/08 01:25:08;;;;;;;;;;;;;;;10.49;75.60;101143.06;5069720;28;19912;-58
2022/11/08 01:27:34;;;;;;;;;;;;;;;10.46;75.87;101140.56;5064544;28;19924;-58
2022/11/08 01:29:59;;;;;;;;;;;;;;;10.45;75.94;101144.13;5071836;28;20003;-61
2022/11/08 01:32:24;;;;;;;;;;;;;;;10.45;75.83;101141.50;5064490;28;20437;-57
2022/11/08 01:34:50;;;;;;;;;;;;;;;10.45;75.71;101139.72;5071590;28;19931;-60
2022/11/08 01:37:15;;;;;;;;;;;;;;;10.45;75.86;101141.50;5066653;28;19917;-58
2022/11/08 01:39:40;;;;;;;;;;;;;;;10.43;76.06;101135.47;5069584;28;19991;-58
2022/11/08 01:42:06;;;;;;;;;;;;;;;10.44;75.89;101142.44;5065987;28;19920;-62
2022/11/08 01:44:31;;;;;;;;;;;;;;;10.43;76.12;101133.69;5064452;28;19925;-57
2022/11/08 01:46:57;;;;;;;;;;;;;;;10.45;76.04;101133.59;5068841;28;19924;-57
2022/11/08 01:49:25;;;;;;;;;;;;;;;10.48;75.87;101141.34;5069863;28;19955;-59
2022/11/08 01:52:11;;;;;;;;;;;;;;;10.50;75.78;101134.22;5068426;28;19916;-59
2022/11/08 01:54:37;;;;;;;;;;;;;;;10.50;75.95;101132.44;5068576;28;19923;-58
2022/11/08 01:57:04;;;;;;;;;;;;;;;10.49;76.07;101133.38;5064217;28;19920;-57
2022/11/08 01:59:30;;;;;;;;;;;;;;;10.51;76.00;101128.03;5067845;28;20007;-58
2022/11/08 02:01:56;;;;;;;;;;;;;;;10.55;75.93;101126.94;5063820;28;19936;-57
2022/11/08 02:04:21;;;;;;;;;;;;;;;10.56;75.97;101128.63;5068969;28;19920;-59
2022/11/08 02:06:47;;;;;;;;;;;;;;;10.56;75.98;101120.75;5068103;28;20006;-57
2022/11/08 02:09:13;;;;;;;;;;;;;;;10.56;76.02;101126.00;5070004;28;19920;-59
2022/11/08 02:11:39;;;;;;;;;;;;;;;10.58;76.03;101123.31;5054312;28;19932;-57
2022/11/08 02:14:05;;;;;;;;;;;;;;;10.58;75.77;101118.06;5061366;28;20287;-58
2022/11/08 02:16:30;;;;;;;;;;;;;;;10.60;75.89;101113.53;5066270;28;20431;-57
2022/11/08 02:18:56;;;;;;;;;;;;;;;10.61;75.93;101117.88;5069514;28;19913;-57
2022/11/08 02:21:37;;;;;;;;;;;;;;;10.60;75.98;101113.53;5065998;28;20011;-58
2022/11/08 02:24:07;;;;;;;;;;;;;;;10.63;75.74;101108.13;5059164;28;19931;-57
2022/11/08 02:26:32;;;;;;;;;;;;;;;10.64;75.84;101121.22;5059923;28;19917;-60
2022/11/08 02:28:58;;;;;;;;;;;;;;;10.66;75.88;101119.31;5064242;28;20009;-58
2022/11/08 02:31:23;;;;;;;;;;;;;;;10.70;75.85;101129.69;5069052;28;20439;-59
2022/11/08 02:33:49;;;;;;;;;;;;;;;10.72;75.92;101128.72;5062065;28;19937;-57
2022/11/08 02:36:16;;;;;;;;;;;;;;;10.77;75.85;101121.41;5063328;28;19921;-60
2022/11/08 02:38:43;;;;;;;;;;;;;;;10.82;75.73;101127.28;5065341;28;19924;-58
2022/11/08 02:41:08;;;;;;;;;;;;;;;10.86;75.61;101130.59;5064016;28;19920;-60
2022/11/08 02:43:34;;;;;;;;;;;;;;;10.91;75.63;101125.09;5065145;28;19942;-59
2022/11/08 02:45:59;;;;;;;;;;;;;;;10.96;75.33;101130.97;5068727;28;19966;-58
2022/11/08 02:48:25;;;;;;;;;;;;;;;10.97;75.15;101122.97;5067586;28;19944;-58
2022/11/08 02:50:50;;;;;;;;;;;;;;;11.01;75.24;101128.94;5065109;28;19925;-61
2022/11/08 02:53:16;;;;;;;;;;;;;;;11.02;75.07;101132.44;5067417;28;19936;-59
2022/11/08 02:55:42;;;;;;;;;;;;;;;11.05;75.05;101137.53;5064759;28;20295;-60
2022/11/08 02:58:07;;;;;;;;;;;;;;;11.05;75.15;101134.91;5062943;28;19951;-57
2022/11/08 03:00:33;;;;;;;;;;;;;;;11.07;75.03;101138.31;5060726;28;19935;-58
2022/11/08 03:02:58;;;;;;;;;;;;;;;11.07;75.16;101135.66;5061571;28;20178;-59
2022/11/08 03:05:25;;;;;;;;;;;;;;;11.07;75.01;101127.78;5060159;28;19928;-58
2022/11/08 03:07:50;;;;;;;;;;;;;;;11.09;75.10;101133.81;5064862;28;19920;-57
2022/11/08 03:10:16;;;;;;;;;;;;;;;11.12;75.00;101125.72;5060297;28;19970;-59
2022/11/08 03:12:42;;;;;;;;;;;;;;;11.12;75.05;101136.25;5057424;28;19974;-62
2022/11/08 03:15:08;;;;;;;;;;;;;;;11.10;74.95;101140.78;5059231;28;19970;-61
2022/11/08 03:17:33;;;;;;;;;;;;;;;11.09;75.17;101131.19;5062147;28;20394;-59
2022/11/08 03:19:58;;;;;;;;;;;;;;;11.11;75.21;101126.69;5059804;28;20015;-58
2022/11/08 03:22:24;;;;;;;;;;;;;;;11.12;75.14;101125.72;5059823;28;20419;-62
2022/11/08 03:24:49;;;;;;;;;;;;;;;11.17;74.98;101128.97;5059944;28;20386;-58
2022/11/08 03:27:14;;;;;;;;;;;;;;;11.17;74.91;101131.59;5058362;28;19920;-57
2022/11/08 03:29:42;;;;;;;;;;;;;;;11.19;74.67;101126.28;5060579;28;19931;-62
2022/11/08 03:32:08;;;;;;;;;;;;;;;11.16;74.89;101124.63;5063797;28;19928;-62
2022/11/08 03:34:33;;;;;;;;;;;;;;;11.15;74.99;101117.66;5058880;28;19939;-58
2022/11/08 03:36:59;;;;;;;;;;;;;;;11.14;75.18;101129.13;5062519;28;19960;-59
2022/11/08 03:39:24;;;;;;;;;;;;;;;11.12;75.08;101123.09;5057983;28;19923;-61
2022/11/08 03:41:49;;;;;;;;;;;;;;;11.15;75.16;101125.56;5064112;28;19917;-57
2022/11/08 03:44:15;;;;;;;;;;;;;;;11.16;75.10;101127.25;5066400;28;19913;-58
2022/11/08 03:46:40;;;;;;;;;;;;;;;11.17;75.06;101123.69;5066662;28;20319;-56
2022/11/08 03:49:05;;;;;;;;;;;;;;;11.18;74.88;101114.88;5068607;28;19917;-57
2022/11/08 03:51:31;;;;;;;;;;;;;;;11.20;75.01;101123.53;5062276;28;19912;-59
2022/11/08 03:53:56;;;;;;;;;;;;;;;11.19;75.19;101119.19;5057112;28;19924;-61
2022/11/08 03:56:21;;;;;;;;;;;;;;;11.19;75.00;101121.00;5065010;28;19931;-57
2022/11/08 03:58:47;;;;;;;;;;;;;;;11.20;75.01;101114.78;5067031;28;19920;-57
2022/11/08 04:01:12;;;;;;;;;;;;;;;11.22;75.07;101115.53;5066918;28;19920;-59
2022/11/08 04:03:37;;;;;;;;;;;;;;;11.24;74.98;101122.44;5064786;28;19920;-57
2022/11/08 04:06:03;;;;;;;;;;;;;;;11.24;75.05;101119.81;5066479;28;19935;-59
2022/11/08 04:08:29;;;;;;;;;;;;;;;11.27;74.88;101119.63;5061234;28;19990;-57
2022/11/08 04:15:13;;;;;;;;;;;;;;;11.27;74.83;101116.97;5067597;28;19916;-57
2022/11/08 04:16:27;;;;;;;;;;;;;;;11.18;74.78;101114.88;5065338;28;20414;-56
2022/11/08 04:21:36;;;;;;;;;;;;;;;11.13;75.05;101116.88;5060088;28;19932;-58
2022/11/08 04:24:01;;;;;;;;;;;;;;;11.10;74.95;101122.34;5066516;28;19912;-59
2022/11/08 04:26:27;;;;;;;;;;;;;;;11.07;74.98;101125.13;5066325;28;19917;-57
2022/11/08 04:28:52;;;;;;;;;;;;;;;11.02;75.07;101119.25;5065084;28;19921;-59
2022/11/08 04:31:18;;;;;;;;;;;;;;;10.97;75.28;101125.63;5064651;28;19925;-62
2022/11/08 04:33:44;;;;;;;;;;;;;;;10.96;75.16;101130.97;5061763;28;20442;-57
2022/11/08 04:36:10;;;;;;;;;;;;;;;10.89;75.45;101122.56;5065740;28;19932;-58
2022/11/08 04:38:35;;;;;;;;;;;;;;;10.91;75.54;101128.59;5062094;28;19920;-56
2022/11/08 04:41:02;;;;;;;;;;;;;;;10.91;75.38;101122.47;5064844;28;19932;-57
2022/11/08 04:43:27;;;;;;;;;;;;;;;10.92;75.56;101118.88;5056210;28;20065;-60
2022/11/08 04:45:57;;;;;;;;;;;;;;;10.95;75.26;101124.00;5060150;28;20438;-59
2022/11/08 04:48:22;;;;;;;;;;;;;;;10.97;75.50;101120.34;5064802;28;19925;-56
2022/11/08 04:50:48;;;;;;;;;;;;;;;10.97;75.40;101117.72;5063455;28;19929;-61
2022/11/08 04:53:13;;;;;;;;;;;;;;;10.97;75.42;101122.97;5060894;28;20019;-61
2022/11/08 04:55:38;;;;;;;;;;;;;;;10.98;75.34;101122.03;5064018;28;19932;-56
2022/11/08 04:58:03;;;;;;;;;;;;;;;10.97;75.34;101115.06;5065706;28;19916;-57
2022/11/08 05:00:29;;;;;;;;;;;;;;;10.97;75.33;101115.06;5064718;28;19921;-56
2022/11/08 05:02:54;;;;;;;;;;;;;;;10.96;75.26;101115.19;5067753;28;20394;-56
2022/11/08 05:05:20;;;;;;;;;;;;;;;10.92;75.42;101119.75;5063377;28;19965;-58
2022/11/08 05:07:45;;;;;;;;;;;;;;;10.92;75.55;101121.53;5061979;28;20379;-61
2022/11/08 05:10:10;;;;;;;;;;;;;;;10.92;75.58;101117.13;5064820;28;20418;-57
2022/11/08 05:12:36;;;;;;;;;;;;;;;10.92;75.36;101109.22;5069108;28;19981;-58
2022/11/08 05:15:01;;;;;;;;;;;;;;;10.93;75.52;101126.72;5067111;28;19932;-56
2022/11/08 05:17:27;;;;;;;;;;;;;;;10.93;75.56;101116.19;5068511;28;19966;-59
2022/11/08 05:25:20;;;;;;;;;;;;;;;10.86;75.32;101114.81;5061331;28;19927;-57
2022/11/08 05:27:45;;;;;;;;;;;;;;;10.81;75.36;101111.59;5062395;28;19939;-63
2022/11/08 05:30:10;;;;;;;;;;;;;;;10.77;75.50;101110.88;5050855;28;19924;-57
2022/11/08 05:32:36;;;;;;;;;;;;;;;10.76;75.41;101113.59;5053269;28;19967;-56
2022/11/08 05:35:01;;;;;;;;;;;;;;;10.73;75.62;101116.38;5045279;28;20019;-58
2022/11/08 05:37:26;;;;;;;;;;;;;;;10.71;75.57;101116.47;5060221;28;19920;-61
2022/11/08 05:39:52;;;;;;;;;;;;;;;10.70;75.58;101113.91;5058340;28;20093;-59
2022/11/08 05:42:17;;;;;;;;;;;;;;;10.68;75.52;101117.47;5056536;28;19943;-57
2022/11/08 05:44:42;;;;;;;;;;;;;;;10.65;75.76;101119.41;5060173;28;19929;-56
2022/11/08 05:47:08;;;;;;;;;;;;;;;10.63;75.82;101116.88;5068711;28;20276;-57
2022/11/08 05:49:33;;;;;;;;;;;;;;;10.60;75.80;101122.28;5072244;28;19952;-58
2022/11/08 05:51:58;;;;;;;;;;;;;;;10.58;75.72;101116.25;5062549;28;19974;-59
2022/11/08 05:54:24;;;;;;;;;;;;;;;10.55;75.96;101121.66;5065800;28;20406;-57
2022/11/08 05:56:49;;;;;;;;;;;;;;;10.53;75.86;101126.16;5065336;28;20044;-57
2022/11/08 05:59:14;;;;;;;;;;;;;;;10.49;75.97;101132.53;5071797;28;19927;-56
2022/11/08 06:01:40;;;;;;;;;;;;;;;10.45;76.04;101128.34;5065265;28;19963;-61
2022/11/08 06:04:05;;;;;;;;;;;;;;;10.42;76.13;101128.50;5055590;28;19930;-58
2022/11/08 06:06:30;;;;;;;;;;;;;;;10.40;76.19;101130.34;5057154;28;20304;-58
2022/11/08 06:08:55;;;;;;;;;;;;;;;10.37;76.17;101132.16;5061089;28;19966;-57
2022/11/08 06:11:22;;;;;;;;;;;;;;;10.36;76.04;101133.09;5071122;28;20017;-58
2022/11/08 06:13:48;;;;;;;;;;;;;;;10.36;75.93;101141.00;5066756;28;19948;-59
2022/11/08 06:16:14;;;;;;;;;;;;;;;10.33;76.16;101138.53;5062195;28;19959;-56
2022/11/08 06:18:40;;;;;;;;;;;;;;;10.28;76.27;101145.81;5067439;28;19923;-57
2022/11/08 06:21:06;;;;;;;;;;;;;;;10.26;76.39;101145.03;5068945;28;19955;-56
2022/11/08 06:23:32;;;;;;;;;;;;;;;10.26;76.49;101152.06;5063722;28;19955;-56
2022/11/08 06:25:57;;;;;;;;;;;;;;;10.27;76.32;101148.53;5067051;28;20299;-56
2022/11/08 06:28:23;;;;;;;;;;;;;;;10.26;76.37;101139.75;5067993;28;19920;-57
2022/11/08 06:30:49;;;;;;;;;;;;;;;10.25;76.36;101147.75;5069646;28;19923;-56
2022/11/08 06:33:14;;;;;;;;;;;;;;;10.22;76.50;101151.34;5068321;28;19916;-57
2022/11/08 06:35:39;;;;;;;;;;;;;;;10.21;76.58;101144.38;5070233;28;19928;-57
2022/11/08 06:38:07;;;;;;;;;;;;;;;10.22;76.27;101148.72;5065129;28;20268;-59
2022/11/08 06:40:32;;;;;;;;;;;;;;;10.20;76.50;101154.06;5069259;28;19935;-57
2022/11/08 06:42:58;;;;;;;;;;;;;;;10.18;76.59;101142.78;5069560;28;20023;-56
2022/11/08 06:45:24;;;;;;;;;;;;;;;10.15;76.64;101145.53;5071289;28;20269;-59
2022/11/08 06:47:55;;;;;;;;;;;;;;;10.16;76.66;101151.69;5067376;28;19937;-58
2022/11/08 06:50:20;;;;;;;;;;;;;;;10.17;76.58;101148.13;5067447;28;19931;-56
2022/11/08 06:52:45;;;;;;;;;;;;;;;10.13;76.89;101147.44;5067752;28;19920;-60
2022/11/08 06:55:10;;;;;;;;;;;;;;;10.14;76.86;101148.25;5073036;28;19920;-57
2022/11/08 06:57:36;;;;;;;;;;;;;;;10.16;76.68;101159.56;5066756;28;20372;-56
2022/11/08 07:00:02;;;;;;;;;;;;;;;10.16;76.91;101156.94;5071128;28;19924;-56
2022/11/08 07:02:27;;;;;;;;;;;;;;;10.15;76.92;101161.31;5070431;28;19916;-56
2022/11/08 07:04:52;;;;;;;;;;;;;;;10.14;77.01;101162.25;5071406;28;19925;-57
2022/11/08 07:07:17;;;;;;;;;;;;;;;10.13;77.32;101162.34;5068533;28;19925;-56
2022/11/08 07:09:43;;;;;;;;;;;;;;;10.13;76.90;101162.34;5066112;28;19924;-56
2022/11/08 07:12:08;;;;;;;;;;;;;;;10.12;77.10;101165.91;5050750;28;20383;-57
2022/11/08 07:14:34;;;;;;;;;;;;;;;10.11;77.30;101164.19;5076910;28;20299;-57
2022/11/08 07:16:59;;;;;;;;;;;;;;;10.13;77.20;101167.59;5070864;28;19974;-57
2022/11/08 07:19:24;;;;;;;;;;;;;;;10.11;77.46;101159.81;5105801;22;19932;-54
2022/11/08 07:21:50;;;;;;;;;;;;;;;10.15;77.22;101171.00;5106644;27;19924;-56
2022/11/08 07:24:15;;;;;;;;;;;;;;;10.17;77.39;101170.00;5102992;27;19919;-54
2022/11/08 07:26:40;;;;;;;;;;;;;;;10.18;77.25;101168.22;5107007;27;19931;-52
2022/11/08 07:29:05;;;;;;;;;;;;;;;10.22;77.11;101169.75;5114213;27;20215;-54
2022/11/08 07:31:31;;;;;;;;;;;;;;;10.25;77.08;101167.00;5109071;28;19920;-54
2022/11/08 07:33:56;;;;;;;;;;;;;;;10.28;77.13;101166.84;5113520;28;20002;-56
2022/11/08 07:36:21;;;;;;;;;;;;;;;10.29;77.13;101165.91;5112599;27;19920;-55
2022/11/08 07:38:47;;;;;;;;;;;;;;;10.31;77.12;101169.31;5117256;27;20279;-56
2022/11/08 07:41:12;;;;;;;;;;;;;;;10.35;77.22;101176.16;5110204;27;19959;-53
2022/11/08 07:43:37;;;;;;;;;;;;;;;10.37;77.09;101169.00;5114347;28;19919;-54
2022/11/08 07:46:02;;;;;;;;;;;;;;;10.39;77.04;101170.75;5112441;27;19959;-57
2022/11/08 07:48:29;;;;;;;;;;;;;;;10.41;77.17;101166.25;5115760;27;19915;-55
2022/11/08 07:50:55;;;;;;;;;;;;;;;10.41;77.28;101158.38;5109180;28;20387;-55
2022/11/08 07:53:20;;;;;;;;;;;;;;;10.44;77.26;101166.09;5090986;28;19920;-57
2022/11/08 07:55:47;;;;;;;;;;;;;;;10.46;77.28;101169.50;5112150;27;19919;-59
2022/11/08 07:58:13;;;;;;;;;;;;;;;10.49;77.41;101172.84;5108182;28;19958;-59
2022/11/08 08:00:39;;;;;;;;;;;;;;;10.52;77.34;101169.19;5105061;28;19916;-56
2022/11/08 08:03:06;;;;;;;;;;;;;;;10.56;77.14;101169.91;5115053;28;20405;-55
2022/11/08 08:05:33;;;;;;;;;;;;;;;10.58;77.28;101168.88;5108297;28;19950;-57
2022/11/08 08:08:00;;;;;;;;;;;;;;;10.59;77.22;101165.34;5098409;28;19924;-54
2022/11/08 08:10:26;;;;;;;;;;;;;;;10.62;77.27;101164.31;5098370;28;19939;-54
2022/11/08 08:12:52;;;;;;;;;;;;;;;10.65;77.25;101167.66;5107138;28;19952;-54
2022/11/08 08:15:17;;;;;;;;;;;;;;;10.68;77.13;101164.84;5100082;28;19928;-57
2022/11/08 08:17:42;;;;;;;;;;;;;;;10.70;77.26;101167.41;5110119;28;20051;-57
2022/11/08 08:20:08;;;;;;;;;;;;;;;10.72;77.24;101169.97;5105816;28;19920;-54
2022/11/08 08:22:33;;;;;;;;;;;;;;;10.73;77.42;101171.66;5113892;28;19985;-54
2022/11/08 08:24:59;;;;;;;;;;;;;;;10.79;77.23;101160.84;5113809;28;19955;-57
2022/11/08 08:27:24;;;;;;;;;;;;;;;10.78;77.33;101159.97;5112320;28;19920;-54
2022/11/08 08:29:49;;;;;;;;;;;;;;;10.83;77.11;101162.34;5117970;28;20028;-55
2022/11/08 08:32:15;;;;;;;;;;;;;;;10.86;77.02;101156.94;5114298;28;20860;-54
2022/11/08 08:34:40;;;;;;;;;;;;;;;10.88;77.03;101147.16;5106289;28;20492;-54
2022/11/08 08:37:05;;;;;;;;;;;;;;;10.92;77.07;101150.50;5110194;28;19922;-54
2022/11/08 08:39:30;;;;;;;;;;;;;;;10.93;76.92;101150.44;5106538;28;19922;-56
2022/11/08 08:41:56;;;;;;;;;;;;;;;10.95;77.12;101147.69;5116012;28;19926;-54
2022/11/08 08:44:21;;;;;;;;;;;;;;;10.96;77.16;101141.50;5112141;28;19943;-54
2022/11/08 08:46:46;;;;;;;;;;;;;;;10.98;77.16;101143.13;5113150;28;19916;-53
2022/11/08 08:49:12;;;;;;;;;;;;;;;11.01;77.08;101139.50;5114330;27;20440;-54
2022/11/08 08:51:37;;;;;;;;;;;;;;;11.06;77.04;101136.59;5110241;27;19919;-54
2022/11/08 08:54:02;;;;;;;;;;;;;;;11.07;77.18;101133.88;5113469;27;19982;-54
2022/11/08 08:56:28;;;;;;;;;;;;;;;11.11;76.92;101132.78;5117436;27;19928;-57
2022/11/08 08:58:53;;;;;;;;;;;;;;;11.16;76.71;101132.53;5106008;27;20410;-54
2022/11/08 09:01:18;;;;;;;;;;;;;;;11.21;76.82;101138.41;5093500;28;19915;-57
2022/11/08 09:03:44;;;;;;;;;;;;;;;11.25;76.73;101139.97;5112270;27;19919;-54
2022/11/08 09:06:09;;;;;;;;;;;;;;;11.29;76.65;101136.19;5112068;27;20006;-60
2022/11/08 09:08:34;;;;;;;;;;;;;;;11.34;76.60;101132.47;5095410;27;19920;-57
2022/11/08 09:11:00;;;;;;;;;;;;;;;11.37;76.70;101135.78;5114258;28;19920;-55
2022/11/08 09:13:26;;;;;;;;;;;;;;;11.44;76.63;101136.28;5113425;27;19920;-54
2022/11/08 09:15:52;;;;;;;;;;;;;;;11.48;76.28;101129.91;5103195;27;19920;-54
2022/11/08 09:18:18;;;;;;;;;;;;;;;11.52;76.27;101130.59;5098526;27;19990;-54
2022/11/08 09:20:43;;;;;;;;;;;;;;;11.57;76.10;101131.19;5104631;27;19916;-55
2022/11/08 09:23:13;;;;;;;;;;;;;;;11.63;75.77;101130.00;5107332;27;20434;-56
2022/11/08 09:25:38;;;;;;;;;;;;;;;11.68;75.58;101130.59;5113696;27;19924;-54
2022/11/08 09:28:04;;;;;;;;;;;;;;;11.72;75.46;101137.41;5120290;27;19920;-54
2022/11/08 09:30:29;;;;;;;;;;;;;;;11.76;75.60;101133.66;5120132;27;19919;-57
2022/11/08 09:32:54;;;;;;;;;;;;;;;11.78;75.44;101133.56;5111536;27;20414;-54
2022/11/08 09:35:20;;;;;;;;;;;;;;;11.81;75.29;101123.69;5114016;27;19946;-54
2022/11/08 09:37:45;;;;;;;;;;;;;;;11.84;75.22;101126.16;5085619;27;20282;-59
2022/11/08 09:40:19;;;;;;;;;;;;;;;11.86;74.92;101132.22;5116266;27;19912;-53
2022/11/08 09:42:44;;;;;;;;;;;;;;;11.92;75.16;101131.00;5115188;27;20421;-53
2022/11/08 09:45:21;;;;;;;;;;;;;;;11.95;74.90;101130.81;5108813;27;19951;-54
2022/11/08 09:48:06;;;;;;;;;;;;;;;11.97;74.88;101130.72;5118839;27;19941;-56
2022/11/08 09:50:31;;;;;;;;;;;;;;;12.03;74.79;101133.03;5111838;27;19916;-57
2022/11/08 09:53:05;;;;;;;;;;;;;;;12.06;74.60;101132.84;5112112;27;19911;-57
2022/11/08 09:55:34;;;;;;;;;;;;;;;12.09;74.66;101137.97;5098556;28;19943;-55
2022/11/08 09:58:20;;;;;;;;;;;;;;;12.13;74.35;101134.22;5115356;27;19911;-56
2022/11/08 10:00:49;;;;;;;;;;;;;;;12.19;74.44;101128.56;5116359;27;19911;-55
2022/11/08 10:03:15;;;;;;;;;;;;;;;12.25;74.02;101131.78;5113061;27;19927;-56
2022/11/08 10:05:42;;;;;;;;;;;;;;;12.31;73.94;101134.09;5111655;27;19954;-55
2022/11/08 10:08:17;;;;;;;;;;;;;;;12.38;74.02;101127.50;5112107;27;19916;-56
2022/11/08 10:10:58;;;;;;;;;;;;;;;12.45;73.65;101127.97;5109757;27;19954;-56
2022/11/08 10:13:27;;;;;;;;;;;;;;;12.48;73.57;101122.53;5111450;27;19966;-56
2022/11/08 10:15:52;;;;;;;;;;;;;;;12.53;73.46;101120.47;5111303;27;19947;-57
2022/11/08 10:18:23;;;;;;;;;;;;;;;12.59;73.11;101113.97;5118130;27;19919;-57
2022/11/08 10:21:24;;;;;;;;;;;;;;;12.65;73.44;101100.38;5104606;27;19959;-55
2022/11/08 10:23:58;;;;;;;;;;;;;;;12.72;73.06;101109.63;5029141;28;19932;-56
2022/11/08 10:26:28;;;;;;;;;;;;;;;12.76;72.73;101100.59;5110256;27;19915;-56
2022/11/08 10:28:55;;;;;;;;;;;;;;;12.81;72.94;101098.50;5125167;27;19934;-54
2022/11/08 10:31:21;;;;;;;;;;;;;;;12.89;72.71;101102.47;5115761;27;20455;-52
2022/11/08 10:33:53;;;;;;;;;;;;;;;12.95;72.71;101097.66;5118415;27;19923;-57
2022/11/08 10:36:21;;;;;;;;;;;;;;;13.01;72.66;101092.94;5107386;27;19923;-52
2022/11/08 10:38:54;;;;;;;;;;;;;;;13.07;72.56;101088.13;5098551;27;19959;-56
2022/11/08 10:41:19;;;;;;;;;;;;;;;13.15;72.65;101092.94;5104248;27;19920;-56
2022/11/08 10:43:51;;;;;;;;;;;;;;;13.19;72.45;101083.84;5106914;27;19924;-54
2022/11/08 10:46:35;;;;;;;;;;;;;;;13.25;72.01;101093.16;5109410;27;19947;-54
2022/11/08 10:49:26;;;;;;;;;;;;;;;13.32;71.72;101089.19;5102218;27;19920;-54
2022/11/08 10:51:53;;;;;;;;;;;;;;;13.37;71.66;101079.19;5076398;28;19924;-55
2022/11/08 10:54:37;;;;;;;;;;;;;;;13.40;71.54;101072.88;5090401;28;19927;-54
2022/11/08 10:57:03;;;;;;;;;;;;;;;13.47;71.46;101081.25;5109194;27;19927;-55
2022/11/08 10:59:29;;;;;;;;;;;;;;;13.50;71.34;101073.97;5107312;28;19924;-53
2022/11/08 11:01:55;;;;;;;;;;;;;;;13.53;70.99;101073.78;5106273;28;19942;-55
2022/11/08 11:04:28;;;;;;;;;;;;;;;13.58;71.07;101065.53;5111662;27;20301;-54
2022/11/08 11:07:00;;;;;;;;;;;;;;;13.64;70.87;101070.44;5110661;27;19927;-54
2022/11/08 11:09:25;;;;;;;;;;;;;;;13.67;71.01;101062.31;5114132;27;19915;-56
2022/11/08 11:12:05;;;;;;;;;;;;;;;13.69;71.05;101065.69;5110124;27;20006;-54
2022/11/08 11:14:30;;;;;;;;;;;;;;;13.70;71.14;101064.72;5110381;28;20005;-55
2022/11/08 11:17:06;;;;;;;;;;;;;;;13.74;71.00;101070.69;5112431;27;19934;-55
2022/11/08 11:19:32;;;;;;;;;;;;;;;13.75;70.56;101063.59;5110758;28;19947;-55
2022/11/08 11:22:05;;;;;;;;;;;;;;;13.75;70.31;101053.00;5109628;27;19970;-55
2022/11/08 11:24:31;;;;;;;;;;;;;;;13.76;70.68;101057.34;5109249;28;19912;-54
2022/11/08 11:26:56;;;;;;;;;;;;;;;13.74;70.61;101064.53;5107322;27;20362;-55
2022/11/08 11:29:31;;;;;;;;;;;;;;;13.75;70.63;101047.72;5109330;27;19935;-54
2022/11/08 11:31:57;;;;;;;;;;;;;;;13.75;70.43;101060.94;5109847;28;19931;-53
2022/11/08 11:34:42;;;;;;;;;;;;;;;13.72;70.26;101052.25;5108964;28;19924;-56
2022/11/08 11:37:07;;;;;;;;;;;;;;;13.72;70.40;101051.44;5106637;27;19935;-54
2022/11/08 11:39:36;;;;;;;;;;;;;;;13.70;70.27;101054.16;5113740;27;19924;-54
2022/11/08 11:42:05;;;;;;;;;;;;;;;13.69;70.51;101046.34;5111594;28;19911;-54
2022/11/08 11:44:34;;;;;;;;;;;;;;;13.67;70.46;101049.09;5108130;28;19911;-54
2022/11/08 11:47:23;;;;;;;;;;;;;;;13.70;70.64;101048.88;5107692;28;19916;-54
2022/11/08 11:49:50;;;;;;;;;;;;;;;13.72;70.72;101044.31;5071282;27;19915;-54
2022/11/08 11:52:17;;;;;;;;;;;;;;;13.74;70.58;101046.03;5104177;28;19919;-54
2022/11/08 11:54:43;;;;;;;;;;;;;;;13.77;70.78;101040.53;5114533;27;19912;-54
2022/11/08 11:57:27;;;;;;;;;;;;;;;13.79;70.87;101041.28;5112469;27;20386;-55
2022/11/08 11:59:59;;;;;;;;;;;;;;;13.83;70.75;101042.78;5111330;28;19919;-55
2022/11/08 12:02:42;;;;;;;;;;;;;;;13.89;70.68;101041.53;5109902;28;20405;-55
2022/11/08 12:05:09;;;;;;;;;;;;;;;13.94;70.38;101040.25;5108873;28;20363;-55
2022/11/08 12:07:36;;;;;;;;;;;;;;;14.01;70.22;101035.41;5111450;28;19916;-54
2022/11/08 12:10:11;;;;;;;;;;;;;;;14.07;70.11;101039.44;5107564;28;19928;-54
2022/11/08 12:12:56;;;;;;;;;;;;;;;14.12;70.17;101038.16;5114969;28;19918;-54
2022/11/08 12:15:22;;;;;;;;;;;;;;;14.18;69.96;101029.81;5109847;28;19928;-57
2022/11/08 12:17:48;;;;;;;;;;;;;;;14.26;69.79;101029.28;5110072;28;19959;-57
2022/11/08 12:20:20;;;;;;;;;;;;;;;14.32;69.85;101023.56;5108864;28;19962;-54
2022/11/08 12:23:09;;;;;;;;;;;;;;;14.39;69.56;101023.97;5095471;28;19970;-57
2022/11/08 12:25:52;;;;;;;;;;;;;;;14.44;68.50;101021.88;5116945;27;19920;-56
2022/11/08 12:28:36;;;;;;;;;;;;;;;14.46;68.59;101019.97;5117200;27;19912;-57
2022/11/08 12:31:04;;;;;;;;;;;;;;;14.48;68.92;101010.13;5116788;27;19987;-54
2022/11/08 12:33:42;;;;;;;;;;;;;;;14.51;68.79;101006.38;5109363;28;19916;-56
2022/11/08 12:36:18;;;;;;;;;;;;;;;14.55;68.72;101004.38;5109218;28;19920;-55
2022/11/08 12:38:53;;;;;;;;;;;;;;;14.55;68.60;101007.00;5100193;28;19927;-54
2022/11/08 12:41:18;;;;;;;;;;;;;;;14.56;68.49;101004.28;5116153;27;19912;-54
2022/11/08 12:44:00;;;;;;;;;;;;;;;14.55;68.18;100999.94;5116121;27;19911;-54
2022/11/08 12:46:28;;;;;;;;;;;;;;;14.57;68.22;101000.69;5110144;27;19924;-54
2022/11/08 12:49:04;;;;;;;;;;;;;;;14.59;68.30;101003.22;5115295;27;19920;-55
2022/11/08 12:51:36;;;;;;;;;;;;;;;14.61;68.52;100996.84;5101231;27;19916;-55
2022/11/08 12:54:16;;;;;;;;;;;;;;;14.64;68.57;100991.31;5110119;27;19943;-54
2022/11/08 12:56:47;;;;;;;;;;;;;;;14.69;68.24;100991.03;5113323;27;19955;-57